Time;durP1;ratioP1;P1;durP2;ratioP2;P2;SDS_P1;SDS_P2;PMS_P1;PMS_P2;Temp;Humidity;BMP_temperature;BMP_pressure;BME280_temperature;BME280_humidity;BME280_pressure;Samples;Min_cycle;Max_cycle;Signal;HPM_P1;HPM_P2
2023/09/07 00:02:42;;;;;;;10.35;7.10;;;;;17.10;101331.00;;;;10384746;28;20248;-84
2023/09/07 00:07:43;;;;;;;10.10;7.05;;;;;17.00;101330.00;;;;10382979;28;20800;-82
2023/09/07 00:12:45;;;;;;;10.00;7.90;;;;;17.00;101316.00;;;;10425032;28;20565;-83
2023/09/07 00:17:47;;;;;;;8.82;7.40;;;;;16.90;101317.00;;;;10354193;28;20310;-81
2023/09/07 00:22:48;;;;;;;13.85;8.75;;;;;16.80;101322.00;;;;10404029;28;20205;-83
2023/09/07 00:27:50;;;;;;;16.60;8.35;;;;;16.80;101322.00;;;;10385281;28;20214;-83
2023/09/07 00:32:51;;;;;;;13.38;9.30;;;;;16.80;101309.00;;;;10388625;28;20229;-82
2023/09/07 00:37:54;;;;;;;12.23;9.95;;;;;16.90;101301.00;;;;10386299;28;20230;-83
2023/09/07 00:42:55;;;;;;;14.27;9.30;;;;;16.90;101297.00;;;;10388904;28;20210;-82
2023/09/07 00:47:57;;;;;;;11.80;10.02;;;;;17.00;101306.00;;;;10385837;28;20605;-83
2023/09/07 00:53:00;;;;;;;12.18;10.18;;;;;17.00;101303.00;;;;10402385;28;20214;-82
2023/09/07 00:58:03;;;;;;;14.43;10.45;;;;;17.10;101305.00;;;;10380774;28;20256;-82
2023/09/07 01:03:04;;;;;;;14.82;10.25;;;;;17.10;101299.00;;;;10378021;28;20682;-82
2023/09/07 01:08:24;;;;;;;11.88;10.07;;;;;17.10;101294.00;;;;10372552;28;20214;-79
2023/09/07 01:13:25;;;;;;;11.38;9.45;;;;;17.10;101290.00;;;;10388571;28;20202;-78
2023/09/07 01:18:27;;;;;;;12.45;9.88;;;;;17.00;101287.00;;;;10386209;28;20217;-79
2023/09/07 01:23:28;;;;;;;11.52;9.80;;;;;17.00;101281.00;;;;10381403;28;20280;-79
2023/09/07 01:28:30;;;;;;;14.45;9.55;;;;;16.80;101280.00;;;;10374683;28;20203;-77
2023/09/07 01:33:32;;;;;;;12.55;9.10;;;;;16.80;101285.00;;;;10354853;28;20485;-76
2023/09/07 01:38:34;;;;;;;10.90;9.43;;;;;16.70;101282.00;;;;10405448;28;20221;-77
2023/09/07 01:43:35;;;;;;;11.85;9.82;;;;;16.70;101284.00;;;;10380048;28;20603;-77
2023/09/07 01:48:37;;;;;;;13.02;9.77;;;;;16.70;101274.00;;;;10351033;28;20250;-77
2023/09/07 01:53:38;;;;;;;12.23;10.07;;;;;16.60;101278.00;;;;10380089;28;20202;-79
2023/09/07 01:58:40;;;;;;;12.15;9.45;;;;;16.50;101279.00;;;;10391178;28;20225;-76
2023/09/07 02:03:42;;;;;;;12.07;9.82;;;;;16.40;101280.00;;;;10372998;28;20209;-78
2023/09/07 02:08:43;;;;;;;14.68;8.82;;;;;16.30;101279.00;;;;10346845;28;20191;-75
2023/09/07 02:13:47;;;;;;;10.63;8.68;;;;;16.20;101283.00;;;;10376646;28;20199;-76
2023/09/07 02:18:50;;;;;;;14.40;9.75;;;;;16.10;101288.00;;;;10381308;28;20230;-77
2023/09/07 02:23:52;;;;;;;11.95;9.80;;;;;16.00;101285.00;;;;10387779;28;20256;-78
2023/09/07 02:28:55;;;;;;;11.80;10.43;;;;;15.90;101279.00;;;;10353530;28;20198;-82
2023/09/07 02:33:56;;;;;;;13.25;9.80;;;;;15.90;101276.00;;;;10376214;28;20194;-81
2023/09/07 02:38:58;;;;;;;12.75;9.63;;;;;15.80;101282.00;;;;10393322;28;20229;-83
2023/09/07 02:43:59;;;;;;;13.40;10.18;;;;;15.70;101281.00;;;;10397382;28;20195;-83
2023/09/07 02:49:01;;;;;;;11.30;9.85;;;;;15.70;101280.00;;;;10385962;28;20191;-83
2023/09/07 02:54:03;;;;;;;12.98;9.95;;;;;15.60;101282.00;;;;10388848;28;20434;-82
2023/09/07 02:59:06;;;;;;;13.85;9.68;;;;;15.50;101282.00;;;;10354307;28;20688;-82
2023/09/07 03:04:08;;;;;;;16.15;10.05;;;;;15.40;101277.00;;;;10348096;28;20727;-82
2023/09/07 03:09:11;;;;;;;16.10;10.15;;;;;15.30;101282.00;;;;10361981;28;20214;-82
2023/09/07 03:14:13;;;;;;;14.75;10.95;;;;;15.30;101271.00;;;;10362021;28;20191;-82
2023/09/07 03:19:14;;;;;;;12.52;9.95;;;;;15.30;101282.00;;;;10385816;28;20218;-83
2023/09/07 03:24:16;;;;;;;11.75;9.60;;;;;15.20;101285.00;;;;10361742;28;20196;-83
2023/09/07 03:29:18;;;;;;;12.70;10.32;;;;;15.20;101284.00;;;;10357597;28;20304;-82
2023/09/07 03:34:20;;;;;;;16.45;11.30;;;;;15.20;101287.00;;;;10367519;28;20241;-86
2023/09/07 03:39:22;;;;;;;15.45;11.30;;;;;15.20;101284.00;;;;10354353;28;20242;-82
2023/09/07 03:44:24;;;;;;;14.57;11.57;;;;;15.20;101275.00;;;;10386075;28;20223;-83
2023/09/07 03:49:26;;;;;;;17.77;12.27;;;;;15.20;101270.00;;;;10378322;28;20286;-83
2023/09/07 03:54:27;;;;;;;17.00;12.25;;;;;15.20;101265.00;;;;10357451;28;20604;-83
2023/09/07 03:59:29;;;;;;;13.60;11.40;;;;;15.20;101280.00;;;;10384546;28;20906;-82
2023/09/07 04:04:31;;;;;;;13.70;10.40;;;;;15.20;101283.00;;;;10412776;28;20195;-82
2023/09/07 04:09:32;;;;;;;15.63;10.77;;;;;15.10;101277.00;;;;10380055;28;20195;-86
2023/09/07 04:14:35;;;;;;;14.05;11.55;;;;;15.00;101280.00;;;;10379511;28;20205;-84
2023/09/07 04:19:36;;;;;;;12.83;11.40;;;;;15.00;101273.00;;;;10387652;28;20218;-85
2023/09/07 04:24:38;;;;;;;13.20;11.80;;;;;15.00;101271.00;;;;10377621;28;20282;-83
2023/09/07 04:29:40;;;;;;;13.30;10.75;;;;;14.90;101269.00;;;;10367160;28;20233;-82
2023/09/07 04:34:41;;;;;;;13.68;11.48;;;;;14.90;101275.00;;;;10386467;28;20199;-86
2023/09/07 04:39:44;;;;;;;15.03;12.53;;;;;14.80;101280.00;;;;10386744;28;20225;-85
2023/09/07 04:44:47;;;;;;;16.92;13.73;;;;;14.80;101277.00;;;;10387962;28;20276;-77
2023/09/07 04:49:52;;;;;;;16.20;12.90;;;;;14.90;101286.00;;;;10388107;28;20207;-78
2023/09/07 04:54:55;;;;;;;15.60;13.48;;;;;14.90;101287.00;;;;10372224;28;20202;-78
2023/09/07 04:59:57;;;;;;;18.23;13.13;;;;;14.80;101285.00;;;;10349827;28;20309;-79
2023/09/07 05:04:58;;;;;;;14.68;12.65;;;;;14.80;101290.00;;;;10371141;28;20464;-77
2023/09/07 05:10:00;;;;;;;15.25;13.23;;;;;14.80;101295.00;;;;10362456;28;20204;-77
2023/09/07 05:15:01;;;;;;;16.42;12.77;;;;;14.80;101296.00;;;;10394214;28;20191;-77
2023/09/07 05:20:04;;;;;;;18.27;14.25;;;;;14.80;101304.00;;;;10376135;28;20565;-78
2023/09/07 05:25:05;;;;;;;15.70;13.60;;;;;14.90;101311.00;;;;10346362;28;20316;-78
2023/09/07 05:30:08;;;;;;;20.50;14.47;;;;;15.00;101314.00;;;;10367819;28;20489;-79
2023/09/07 05:35:11;;;;;;;15.73;13.43;;;;;15.10;101320.00;;;;10391759;28;20651;-78
2023/09/07 05:40:13;;;;;;;19.17;13.35;;;;;15.30;101322.00;;;;10381210;28;20254;-80
2023/09/07 05:45:15;;;;;;;15.50;13.40;;;;;15.40;101311.00;;;;10408636;28;20632;-79
2023/09/07 05:50:16;;;;;;;22.88;14.15;;;;;15.60;101311.00;;;;10386688;28;20199;-79
2023/09/07 05:55:18;;;;;;;18.70;14.00;;;;;15.80;101306.00;;;;10406835;28;20291;-83
2023/09/07 06:00:20;;;;;;;14.10;12.60;;;;;16.00;101311.00;;;;10394545;28;20198;-83
2023/09/07 06:05:23;;;;;;;16.70;14.10;;;;;16.30;101317.00;;;;10405100;28;20294;-83
2023/09/07 06:10:28;;;;;;;19.85;15.18;;;;;16.50;101321.00;;;;10409081;28;20214;-83
2023/09/07 06:15:30;;;;;;;20.05;14.57;;;;;16.80;101319.00;;;;10379920;28;20245;-83
2023/09/07 06:20:32;;;;;;;19.13;14.40;;;;;17.10;101318.00;;;;10392361;28;20222;-82
2023/09/07 06:25:35;;;;;;;18.08;14.30;;;;;17.50;101317.00;;;;10418434;28;20694;-83
2023/09/07 06:30:37;;;;;;;15.82;12.25;;;;;18.10;101313.00;;;;10379979;28;20207;-83
2023/09/07 06:35:39;;;;;;;12.70;11.38;;;;;18.70;101319.00;;;;10380016;28;20263;-83
2023/09/07 06:40:40;;;;;;;13.50;10.23;;;;;19.20;101318.00;;;;10406119;28;20203;-83
2023/09/07 06:45:42;;;;;;;13.60;10.57;;;;;19.30;101316.00;;;;10408313;28;20261;-83
2023/09/07 06:50:43;;;;;;;14.70;10.35;;;;;19.70;101315.00;;;;10394597;28;20191;-83
2023/09/07 06:55:45;;;;;;;12.55;9.57;;;;;20.10;101308.00;;;;10387992;28;20294;-83
2023/09/07 07:00:47;;;;;;;13.25;9.23;;;;;20.40;101318.00;;;;10398415;28;20221;-82
2023/09/07 07:05:49;;;;;;;13.88;9.82;;;;;20.40;101322.00;;;;10369662;28;20259;-80
2023/09/07 07:10:52;;;;;;;12.18;8.77;;;;;20.50;101322.00;;;;10365497;28;20900;-80
2023/09/07 07:15:54;;;;;;;9.48;8.52;;;;;20.80;101317.00;;;;10381221;28;20214;-80
2023/09/07 07:20:56;;;;;;;9.60;8.27;;;;;20.90;101323.00;;;;10361715;28;20191;-80
2023/09/07 07:25:57;;;;;;;10.73;9.07;;;;;21.10;101319.00;;;;10393771;28;20191;-79
2023/09/07 07:31:10;;;;;;;11.27;8.38;;;;;21.20;101322.00;;;;10425188;28;20195;-80
2023/09/07 07:36:13;;;;;;;9.85;7.43;;;;;21.40;101319.00;;;;10382970;28;20226;-80
2023/09/07 07:41:15;;;;;;;14.48;7.30;;;;;21.60;101310.00;;;;10364378;28;20211;-79
2023/09/07 07:46:17;;;;;;;10.10;7.85;;;;;21.90;101308.00;;;;10366194;28;20223;-79
2023/09/07 07:51:19;;;;;;;13.15;7.68;;;;;22.20;101309.00;;;;10362776;28;20366;-79
2023/09/07 07:56:25;;;;;;;10.23;7.00;;;;;22.50;101310.00;;;;10365789;28;20655;-80
2023/09/07 08:01:29;;;;;;;8.48;7.40;;;;;22.90;101305.00;;;;10389270;28;20195;-81
2023/09/07 08:06:33;;;;;;;9.13;6.82;;;;;23.30;101313.00;;;;10356359;28;20475;-80
2023/09/07 08:11:34;;;;;;;10.80;7.90;;;;;23.60;101310.00;;;;10366693;28;20287;-80
2023/09/07 08:16:37;;;;;;;9.80;6.63;;;;;23.90;101306.00;;;;10377833;28;20617;-84
2023/09/07 08:21:41;;;;;;;9.05;6.57;;;;;24.20;101305.00;;;;10359518;28;20230;-84
2023/09/07 08:26:43;;;;;;;7.60;6.50;;;;;24.60;101306.00;;;;10349312;28;20294;-84
2023/09/07 08:31:45;;;;;;;9.40;5.60;;;;;25.10;101302.00;;;;10408347;28;20229;-83
2023/09/07 08:36:47;;;;;;;8.13;6.10;;;;;25.70;101300.00;;;;10407497;28;20329;-84
2023/09/07 08:41:48;;;;;;;9.30;5.40;;;;;26.30;101297.00;;;;10408881;28;20202;-85
2023/09/07 08:47:03;;;;;;;9.20;5.60;;;;;26.90;101298.00;;;;10400789;28;20191;-83
2023/09/07 08:52:06;;;;;;;5.10;4.60;;;;;27.30;101299.00;;;;10376334;28;20885;-84
2023/09/07 08:57:10;;;;;;;4.10;3.70;;;;;27.80;101300.00;;;;10391064;28;20280;-85
2023/09/07 09:02:12;;;;;;;4.40;3.42;;;;;28.20;101298.00;;;;10333505;28;20257;-84
2023/09/07 09:07:13;;;;;;;3.28;2.97;;;;;28.50;101287.00;;;;10370190;28;20338;-84
2023/09/07 09:12:15;;;;;;;3.85;3.55;;;;;28.70;101293.00;;;;10387706;28;20765;-84
2023/09/07 09:17:16;;;;;;;5.22;3.58;;;;;28.90;101286.00;;;;10397220;28;20222;-84
2023/09/07 09:22:19;;;;;;;6.50;3.45;;;;;29.10;101280.00;;;;10406812;28;20210;-84
2023/09/07 09:27:21;;;;;;;9.23;3.63;;;;;29.40;101285.00;;;;10374316;28;20202;-81
2023/09/07 09:32:23;;;;;;;3.83;3.53;;;;;29.60;101291.00;;;;10391499;28;20199;-81
2023/09/07 09:37:24;;;;;;;4.93;3.30;;;;;29.80;101275.00;;;;10402167;28;20248;-78
2023/09/07 09:42:26;;;;;;;5.13;3.70;;;;;30.20;101278.00;;;;10407588;28;20784;-78
2023/09/07 09:47:28;;;;;;;3.63;3.30;;;;;30.50;101275.00;;;;10352355;28;20223;-77
2023/09/07 09:52:30;;;;;;;6.72;3.58;;;;;30.40;101271.00;;;;10403743;28;20284;-78
2023/09/07 09:57:32;;;;;;;3.90;3.13;;;;;30.60;101263.00;;;;10386115;28;20290;-77
2023/09/07 10:02:39;;;;;;;5.18;3.67;;;;;30.80;101267.00;;;;10407815;28;20531;-78
2023/09/07 10:07:45;;;;;;;3.95;3.10;;;;;31.10;101260.00;;;;10411797;28;20215;-78
2023/09/07 10:12:53;;;;;;;4.80;3.33;;;;;31.20;101251.00;;;;10402186;28;20206;-78
2023/09/07 10:18:11;;;;;;;4.15;3.58;;;;;31.50;101248.00;;;;10355797;28;20846;-79
2023/09/07 10:23:12;;;;;;;3.95;3.03;;;;;31.90;101242.00;;;;10395380;28;20252;-81
2023/09/07 10:28:22;;;;;;;3.28;2.95;;;;;32.10;101244.00;;;;10364218;28;20215;-81
2023/09/07 10:33:24;;;;;;;3.30;2.67;;;;;32.40;101238.00;;;;10362220;28;20210;-80
2023/09/07 10:38:25;;;;;;;4.15;2.90;;;;;32.40;101234.00;;;;10391831;28;20206;-78
2023/09/07 10:43:28;;;;;;;4.78;3.22;;;;;32.40;101230.00;;;;10409523;28;20206;-78
2023/09/07 10:48:31;;;;;;;3.30;3.00;;;;;32.60;101233.00;;;;10420842;28;20625;-78
2023/09/07 10:53:32;;;;;;;3.75;3.30;;;;;32.60;101233.00;;;;10415440;28;20230;-78
2023/09/07 10:58:38;;;;;;;5.72;3.10;;;;;32.70;101230.00;;;;10390623;28;20206;-80
2023/09/07 11:03:39;;;;;;;5.97;3.42;;;;;32.90;101226.00;;;;10390850;28;20242;-77
2023/09/07 11:08:41;;;;;;;3.20;2.90;;;;;33.20;101222.00;;;;10395073;28;20216;-82
2023/09/07 11:13:43;;;;;;;4.07;3.15;;;;;33.40;101213.00;;;;10381117;28;20811;-82
2023/09/07 11:18:46;;;;;;;4.95;3.38;;;;;33.70;101216.00;;;;10403218;28;20202;-78
2023/09/07 11:23:47;;;;;;;5.45;3.30;;;;;33.80;101215.00;;;;10430744;28;20309;-80
2023/09/07 11:28:48;;;;;;;5.15;3.03;;;;;33.70;101208.00;;;;10380905;28;20226;-79
2023/09/07 11:33:49;;;;;;;7.50;4.00;;;;;33.80;101203.00;;;;10391318;28;20248;-77
2023/09/07 11:38:51;;;;;;;3.63;3.33;;;;;33.80;101204.00;;;;10401425;28;20753;-78
2023/09/07 11:43:52;;;;;;;7.78;3.33;;;;;33.90;101202.00;;;;10402877;28;20209;-82
2023/09/07 11:48:54;;;;;;;4.72;3.08;;;;;33.90;101207.00;;;;10418298;28;20223;-81
2023/09/07 11:53:55;;;;;;;4.03;2.78;;;;;34.00;101192.00;;;;10378239;28;20214;-82
2023/09/07 11:58:57;;;;;;;7.05;2.97;;;;;33.80;101184.00;;;;10404829;28;20217;-80
2023/09/07 12:03:58;;;;;;;3.22;2.50;;;;;33.50;101193.00;;;;10381248;28;20202;-82
2023/09/07 12:09:00;;;;;;;3.38;2.75;;;;;33.40;101182.00;;;;10414355;28;20210;-80
2023/09/07 12:14:02;;;;;;;4.30;3.00;;;;;33.50;101181.00;;;;10381718;28;20676;-79
2023/09/07 12:19:03;;;;;;;4.90;2.90;;;;;33.70;101175.00;;;;10413688;28;20210;-81
2023/09/07 12:24:05;;;;;;;3.30;3.05;;;;;33.80;101174.00;;;;10406595;28;20194;-80
2023/09/07 12:29:07;;;;;;;3.97;2.92;;;;;34.00;101159.00;;;;10400202;28;20219;-80
2023/09/07 12:34:09;;;;;;;5.40;3.38;;;;;34.20;101159.00;;;;10396364;28;20198;-79
2023/09/07 12:39:12;;;;;;;5.63;3.40;;;;;34.30;101162.00;;;;10393819;28;20292;-83
2023/09/07 12:44:14;;;;;;;6.30;3.10;;;;;34.40;101158.00;;;;10354814;28;20253;-81
2023/09/07 12:49:15;;;;;;;3.63;3.30;;;;;34.50;101155.00;;;;10350700;28;20222;-80
2023/09/07 12:54:17;;;;;;;7.32;2.80;;;;;34.40;101151.00;;;;10401404;28;20764;-82
2023/09/07 12:59:18;;;;;;;4.10;3.10;;;;;33.90;101154.00;;;;10431719;28;20202;-84
2023/09/07 13:04:19;;;;;;;4.57;3.00;;;;;33.60;101143.00;;;;10373780;28;20214;-88
2023/09/07 13:09:21;;;;;;;4.68;3.67;;;;;33.60;101140.00;;;;10391930;28;20660;-87
2023/09/07 13:14:22;;;;;;;5.55;3.33;;;;;33.60;101137.00;;;;10355862;28;20192;-87
2023/09/07 13:19:36;;;;;;;4.82;3.53;;;;;33.40;101138.00;;;;10369162;28;20209;-86
2023/09/07 13:24:37;;;;;;;4.43;3.20;;;;;33.20;101136.00;;;;10391271;28;20202;-87
2023/09/07 13:29:38;;;;;;;9.82;3.47;;;;;33.20;101127.00;;;;10402787;28;20270;-85
2023/09/07 13:34:39;;;;;;;4.25;3.72;;;;;33.00;101125.00;;;;10411045;28;20475;-91
2023/09/07 13:39:41;;;;;;;6.47;3.70;;;;;32.80;101125.00;;;;10369940;28;20352;-86
2023/09/07 13:44:45;;;;;;;6.30;3.70;;;;;32.70;101109.00;;;;10387005;28;20226;-88
2023/09/07 13:49:46;;;;;;;5.60;3.92;;;;;32.70;101119.00;;;;10396552;28;20242;-89
2023/09/07 13:54:47;;;;;;;7.65;3.83;;;;;32.80;101115.00;;;;10399542;28;20736;-89
2023/09/07 13:59:49;;;;;;;4.55;3.47;;;;;32.80;101117.00;;;;10395901;28;20195;-86
2023/09/07 14:05:04;;;;;;;6.88;2.80;;;;;32.70;101120.00;;;;10514947;22;20520;31
2023/09/07 14:10:06;;;;;;;4.53;3.00;;;;;32.70;101111.00;;;;11796792;22;20220;-83
2023/09/07 14:32:37;;;;;;;5.95;3.40;;;;;32.00;101106.00;;;;5867123;23;20397;-87
2023/09/07 14:38:05;;;;;;;6.43;3.75;;;;;31.40;101104.00;;;;3072251;23;20562;-82
2023/09/07 14:49:00;;;;;;;4.80;3.67;;;;;31.00;101100.00;;;;6057337;23;20448;-87
2023/09/07 15:00:03;;;;;;;3.97;3.58;;;;;30.30;101101.00;;;;3267967;23;20229;-82
2023/09/07 15:05:09;;;;;;;4.10;3.60;;;;;30.10;101099.00;;;;3929027;23;21627;-86
2023/09/07 15:10:10;;;;;;;8.50;3.70;;;;;29.90;101085.00;;;;10651362;23;20245;-85
2023/09/07 15:15:11;;;;;;;3.50;3.20;;;;;29.80;101081.00;;;;10502510;23;20851;-85
2023/09/07 15:20:13;;;;;;;3.67;3.38;;;;;29.60;101090.00;;;;10213997;29;20206;-83
2023/09/07 15:25:14;;;;;;;3.72;3.35;;;;;29.60;101106.00;;;;10192927;29;20284;-85
2023/09/07 15:30:16;;;;;;;6.95;3.63;;;;;29.50;101090.00;;;;10185630;29;20229;-86
2023/09/07 15:35:17;;;;;;;8.10;4.10;;;;;29.40;101085.00;;;;10216089;28;20217;-84
2023/09/07 15:40:18;;;;;;;5.05;3.47;;;;;29.30;101093.00;;;;10188208;29;20584;-82
2023/09/07 15:45:20;;;;;;;6.53;3.65;;;;;29.20;101092.00;;;;10197181;28;20247;-84
2023/09/07 15:50:21;;;;;;;3.90;3.58;;;;;29.10;101083.00;;;;10207752;29;20256;-84
2023/09/07 15:55:23;;;;;;;5.82;3.40;;;;;29.00;101083.00;;;;10194772;29;20215;-83
2023/09/07 16:00:24;;;;;;;6.07;3.50;;;;;28.90;101074.00;;;;10187855;29;20690;-85
2023/09/07 16:05:26;;;;;;;4.25;3.58;;;;;28.90;101081.00;;;;10202004;28;20284;-86
2023/09/07 16:10:27;;;;;;;5.72;3.65;;;;;28.80;101077.00;;;;10189573;29;20222;-84
2023/09/07 16:15:30;;;;;;;6.13;3.50;;;;;28.70;101079.00;;;;10198550;28;20662;-86
2023/09/07 16:20:31;;;;;;;3.88;3.58;;;;;28.70;101086.00;;;;10175992;28;20217;-83
2023/09/07 16:25:33;;;;;;;5.70;3.45;;;;;28.60;101095.00;;;;10207284;29;20213;-84
2023/09/07 16:30:34;;;;;;;5.82;3.88;;;;;28.50;101079.00;;;;10214908;28;20229;-85
2023/09/07 16:35:35;;;;;;;10.15;3.42;;;;;28.50;101082.00;;;;10215355;28;20210;-84
2023/09/07 16:40:38;;;;;;;5.78;3.45;;;;;28.40;101086.00;;;;10197295;28;20217;-84
2023/09/07 16:45:39;;;;;;;5.68;3.60;;;;;28.30;101082.00;;;;10218083;28;20210;-82
2023/09/07 16:50:44;;;;;;;6.78;3.80;;;;;28.20;101079.00;;;;10206469;28;20970;-83
2023/09/07 16:55:46;;;;;;;6.00;3.65;;;;;28.10;101084.00;;;;10178821;29;20221;-84
2023/09/07 17:00:47;;;;;;;8.05;3.88;;;;;28.00;101084.00;;;;10153352;29;20210;-83
2023/09/07 17:05:48;;;;;;;8.35;4.43;;;;;27.90;101088.00;;;;10182662;29;20768;-85
2023/09/07 17:10:49;;;;;;;5.93;4.03;;;;;27.80;101093.00;;;;10206408;28;20730;-84
2023/09/07 17:15:51;;;;;;;4.97;4.13;;;;;27.70;101095.00;;;;10202463;29;20223;-81
2023/09/07 17:20:52;;;;;;;8.52;4.20;;;;;27.50;101092.00;;;;10187034;28;20213;-83
2023/09/07 17:25:54;;;;;;;10.70;4.55;;;;;27.40;101090.00;;;;10203008;29;20214;-83
2023/09/07 17:30:55;;;;;;;4.45;4.10;;;;;27.20;101088.00;;;;10169457;28;20202;-83
2023/09/07 17:35:56;;;;;;;5.95;4.30;;;;;27.10;101092.00;;;;10180853;29;20238;-80
2023/09/07 17:40:58;;;;;;;8.25;4.63;;;;;26.90;101102.00;;;;10180960;28;20639;-79
2023/09/07 17:45:59;;;;;;;4.88;4.38;;;;;26.70;101100.00;;;;10186440;28;20722;-78
2023/09/07 17:51:04;;;;;;;5.57;4.35;;;;;26.50;101112.00;;;;10188054;29;20726;-78
2023/09/07 17:56:07;;;;;;;8.00;4.55;;;;;26.20;101110.00;;;;10196053;28;20226;-79
2023/09/07 18:01:14;;;;;;;9.52;4.75;;;;;25.90;101106.00;;;;10167563;28;20727;-77
2023/09/07 18:06:16;;;;;;;7.38;4.65;;;;;25.60;101117.00;;;;10185002;28;20235;-79
2023/09/07 18:11:20;;;;;;;9.45;4.70;;;;;25.30;101127.00;;;;10197323;28;21074;-79
2023/09/07 18:16:23;;;;;;;10.00;4.90;;;;;25.20;101120.00;;;;10192940;28;20669;-78
2023/09/07 18:21:24;;;;;;;5.43;4.93;;;;;25.00;101126.00;;;;10176728;29;20207;-78
2023/09/07 18:26:26;;;;;;;8.90;5.35;;;;;24.90;101127.00;;;;10185847;29;20730;-79
2023/09/07 18:31:27;;;;;;;10.68;5.63;;;;;24.60;101134.00;;;;10194953;29;20250;-79
2023/09/07 18:36:29;;;;;;;7.55;5.95;;;;;24.40;101125.00;;;;10203970;29;20254;-77
2023/09/07 18:41:30;;;;;;;8.45;5.53;;;;;24.20;101126.00;;;;10189076;29;20256;-77
2023/09/07 18:46:32;;;;;;;9.52;5.47;;;;;23.90;101133.00;;;;10201430;29;20305;-81
2023/09/07 18:51:33;;;;;;;8.63;6.10;;;;;23.80;101137.00;;;;10207403;29;20210;-84
2023/09/07 18:56:35;;;;;;;7.40;5.43;;;;;23.60;101136.00;;;;10207176;28;20322;-86
2023/09/07 19:01:36;;;;;;;8.27;5.93;;;;;23.50;101140.00;;;;10197671;29;20229;-86
2023/09/07 19:06:38;;;;;;;8.57;6.85;;;;;23.30;101140.00;;;;10174306;29;20261;-86
2023/09/07 19:11:39;;;;;;;9.80;6.45;;;;;23.20;101133.00;;;;10178924;29;20212;-84
2023/09/07 19:16:41;;;;;;;11.52;6.85;;;;;23.00;101135.00;;;;10175796;28;20281;-83
2023/09/07 19:21:43;;;;;;;7.55;6.38;;;;;22.90;101131.00;;;;10192124;28;20253;-85
2023/09/07 19:26:44;;;;;;;12.25;6.13;;;;;22.80;101127.00;;;;10190796;29;20234;-84
2023/09/07 19:31:46;;;;;;;11.38;6.82;;;;;22.80;101132.00;;;;10185691;29;20210;-85
2023/09/07 19:36:47;;;;;;;12.55;7.05;;;;;22.70;101142.00;;;;10191885;28;20578;-86
2023/09/07 19:41:48;;;;;;;9.35;6.68;;;;;22.50;101144.00;;;;10199689;29;20352;-86
2023/09/07 19:46:50;;;;;;;12.45;7.03;;;;;22.40;101146.00;;;;10194761;29;20230;-85
2023/09/07 19:51:51;;;;;;;9.45;7.65;;;;;22.20;101144.00;;;;10177696;28;20212;-86
2023/09/07 19:56:52;;;;;;;8.32;7.53;;;;;22.10;101159.00;;;;10181492;29;20214;-79
2023/09/07 20:01:59;;;;;;;9.77;8.10;;;;;21.90;101148.00;;;;10190522;28;20254;-78
2023/09/07 20:07:02;;;;;;;10.57;8.13;;;;;21.80;101152.00;;;;10189414;29;20222;-76
2023/09/07 20:12:04;;;;;;;11.73;8.88;;;;;21.70;101144.00;;;;10185887;29;20210;-78
2023/09/07 20:17:05;;;;;;;12.70;8.80;;;;;21.60;101147.00;;;;10178804;29;20257;-76
2023/09/07 20:22:07;;;;;;;10.65;8.63;;;;;21.50;101154.00;;;;10206794;29;20213;-82
2023/09/07 20:27:08;;;;;;;15.07;8.88;;;;;21.40;101154.00;;;;10200706;28;20249;-76
2023/09/07 20:32:10;;;;;;;11.25;8.88;;;;;21.30;101152.00;;;;10194422;28;20210;-75
2023/09/07 20:37:12;;;;;;;14.90;9.63;;;;;21.20;101151.00;;;;10174563;28;20216;-75
2023/09/07 20:42:15;;;;;;;11.23;10.10;;;;;21.10;101146.00;;;;10180621;29;20246;-77
2023/09/07 20:47:16;;;;;;;11.52;9.88;;;;;21.00;101149.00;;;;10183833;29;20233;-77
2023/09/07 20:52:17;;;;;;;11.52;10.38;;;;;20.90;101151.00;;;;10184893;29;20222;-76
2023/09/07 20:57:18;;;;;;;10.20;9.20;;;;;20.80;101149.00;;;;10157423;29;20229;-75
2023/09/07 21:02:20;;;;;;;10.60;9.27;;;;;20.70;101154.00;;;;10206110;29;20220;-79
2023/09/07 21:07:21;;;;;;;13.38;9.85;;;;;20.70;101153.00;;;;10169325;29;20222;-77
2023/09/07 21:12:22;;;;;;;11.50;10.27;;;;;20.60;101151.00;;;;10186001;29;20239;-78
2023/09/07 21:17:24;;;;;;;15.13;10.93;;;;;20.60;101150.00;;;;10200093;28;20781;-78
2023/09/07 21:22:26;;;;;;;11.48;10.23;;;;;20.50;101148.00;;;;10177805;29;20214;-78
2023/09/07 21:27:27;;;;;;;13.27;10.75;;;;;20.40;101136.00;;;;10176941;29;20737;-79
2023/09/07 21:32:29;;;;;;;13.65;11.13;;;;;20.30;101141.00;;;;10181179;28;20839;-79
2023/09/07 21:37:30;;;;;;;12.35;10.60;;;;;20.30;101144.00;;;;10187826;28;20208;-78
2023/09/07 21:42:32;;;;;;;12.23;9.93;;;;;20.20;101154.00;;;;10192887;29;20210;-79
2023/09/07 21:47:34;;;;;;;11.80;10.55;;;;;20.20;101143.00;;;;10166648;28;20233;-78
2023/09/07 21:52:36;;;;;;;13.07;11.50;;;;;20.10;101148.00;;;;10178230;29;20237;-77
2023/09/07 21:57:39;;;;;;;10.90;9.60;;;;;20.00;101144.00;;;;10178117;28;20310;-78
2023/09/07 22:02:40;;;;;;;13.85;10.50;;;;;19.90;101143.00;;;;10198876;28;20218;-77
2023/09/07 22:07:41;;;;;;;11.90;9.82;;;;;19.90;101138.00;;;;10182132;28;20256;-77
2023/09/07 22:12:43;;;;;;;12.13;9.48;;;;;19.90;101140.00;;;;10174622;29;20218;-78
2023/09/07 22:17:46;;;;;;;12.45;9.65;;;;;20.00;101132.00;;;;10208060;28;20218;-78
2023/09/07 22:22:47;;;;;;;12.07;10.75;;;;;20.00;101131.00;;;;10175360;28;20842;-79
2023/09/07 22:27:48;;;;;;;13.80;10.02;;;;;19.90;101129.00;;;;10186181;29;20230;-78
2023/09/07 22:32:50;;;;;;;12.73;10.73;;;;;19.80;101130.00;;;;10208969;29;20567;-81
2023/09/07 22:37:51;;;;;;;11.10;10.02;;;;;19.70;101130.00;;;;10200448;29;20217;-79
2023/09/07 22:42:52;;;;;;;15.32;10.32;;;;;19.60;101128.00;;;;10191474;28;20921;-78
2023/09/07 22:47:54;;;;;;;10.82;9.43;;;;;19.60;101127.00;;;;10210147;28;20214;-78
2023/09/07 22:52:55;;;;;;;11.50;9.88;;;;;19.50;101123.00;;;;10189342;28;20274;-79
2023/09/07 22:57:56;;;;;;;13.05;9.52;;;;;19.50;101127.00;;;;10181536;28;20202;-79
2023/09/07 23:02:58;;;;;;;10.70;9.70;;;;;19.40;101118.00;;;;10193402;28;20209;-78
2023/09/07 23:08:00;;;;;;;10.13;8.85;;;;;19.30;101130.00;;;;10218220;28;20256;-78
2023/09/07 23:13:03;;;;;;;11.98;9.20;;;;;19.20;101133.00;;;;10200320;29;20300;-78
2023/09/07 23:18:05;;;;;;;10.95;9.85;;;;;19.20;101139.00;;;;10200218;29;20234;-78
2023/09/07 23:23:06;;;;;;;11.50;10.23;;;;;19.20;101142.00;;;;10208304;28;20226;-80
2023/09/07 23:33:52;;;;;;;11.02;9.85;;;;;19.20;101135.00;;;;10444841;23;20418;-80
2023/09/07 23:38:53;;;;;;;14.85;10.40;;;;;19.10;101126.00;;;;10236986;28;20440;-80
2023/09/07 23:43:55;;;;;;;10.93;9.88;;;;;19.10;101138.00;;;;10252347;28;20232;-80
2023/09/07 23:48:56;;;;;;;11.05;9.90;;;;;19.00;101137.00;;;;10244807;28;20282;-80
2023/09/07 23:53:57;;;;;;;11.02;9.52;;;;;18.90;101135.00;;;;10229053;29;20405;-79
2023/09/07 23:58:58;;;;;;;12.10;10.02;;;;;18.90;101131.00;;;;10306877;23;20217;-80
